createdAt,value
2023-12-09T00:01:46.901Z,87.44
2023-12-09T00:06:49.987Z,87.93
2023-12-09T00:11:52.424Z,87.38
2023-12-09T00:16:54.472Z,87.50
2023-12-09T00:21:56.548Z,87.38
2023-12-09T00:26:58.641Z,87.49
2023-12-09T00:32:00.705Z,87.85
2023-12-09T00:37:02.824Z,87.64
2023-12-09T00:42:05.327Z,87.48
2023-12-09T00:47:07.341Z,87.90
2023-12-09T00:52:09.509Z,87.88
2023-12-09T00:57:11.663Z,87.46
2023-12-09T01:02:14.000Z,86.80
2023-12-09T01:07:16.091Z,87.15
2023-12-09T01:12:18.396Z,87.62
2023-12-09T01:17:20.744Z,87.77
2023-12-09T01:22:22.809Z,88.34
2023-12-09T01:27:25.080Z,87.67
2023-12-09T01:32:27.521Z,88.11
2023-12-09T01:37:29.704Z,88.32
2023-12-09T01:42:31.982Z,87.61
2023-12-09T01:47:34.259Z,88.30
2023-12-09T01:52:36.340Z,88.11
2023-12-09T01:57:38.502Z,88.14
2023-12-09T02:02:40.687Z,87.88
2023-12-09T02:07:42.909Z,87.76
2023-12-09T02:12:53.973Z,88.06
2023-12-09T02:18:05.838Z,88.12
2023-12-09T02:23:27.886Z,88.51
2023-12-09T02:28:30.041Z,87.75
2023-12-09T02:33:32.368Z,87.72
2023-12-09T02:38:34.489Z,88.10
2023-12-09T02:43:37.734Z,88.62
2023-12-09T02:48:39.947Z,88.30
2023-12-09T02:53:42.138Z,89.02
2023-12-09T02:58:44.301Z,88.55
2023-12-09T03:03:46.636Z,88.79
2023-12-09T03:08:48.748Z,88.85
2023-12-09T03:13:50.814Z,88.68
2023-12-09T03:18:53.111Z,88.30
2023-12-09T03:23:55.279Z,87.65
2023-12-09T03:28:57.411Z,87.46
2023-12-09T03:33:59.759Z,87.36
2023-12-09T03:39:01.939Z,86.74
2023-12-09T03:44:04.345Z,87.22
2023-12-09T03:49:06.435Z,86.62
2023-12-09T03:54:08.611Z,86.60
2023-12-09T03:59:10.724Z,87.36
2023-12-09T04:04:12.888Z,87.11
2023-12-09T04:09:15.070Z,86.77
2023-12-09T04:14:17.129Z,86.96
2023-12-09T04:19:19.474Z,86.95
2023-12-09T04:24:21.779Z,88.08
2023-12-09T04:29:24.113Z,87.43
2023-12-09T04:34:26.162Z,86.66
2023-12-09T04:39:28.401Z,87.08
2023-12-09T04:44:30.533Z,86.37
2023-12-09T04:49:32.652Z,86.14
2023-12-09T04:54:34.921Z,86.63
2023-12-09T04:59:37.179Z,86.28
2023-12-09T05:04:39.323Z,86.23
2023-12-09T05:09:41.584Z,86.43
2023-12-09T05:14:43.770Z,85.65
2023-12-09T05:19:45.852Z,85.93
2023-12-09T05:24:47.832Z,86.16
2023-12-09T05:29:50.337Z,85.68
2023-12-09T05:34:52.350Z,85.56
2023-12-09T05:39:54.314Z,86.27
2023-12-09T05:44:56.530Z,86.47
2023-12-09T05:49:58.782Z,86.25
2023-12-09T05:55:00.900Z,86.04
2023-12-09T06:00:02.998Z,85.57
2023-12-09T06:05:06.988Z,85.33
2023-12-09T06:10:09.678Z,85.28
2023-12-09T06:15:11.730Z,84.69
2023-12-09T06:20:14.913Z,84.28
2023-12-09T06:25:17.254Z,85.09
2023-12-09T06:30:19.455Z,85.86
2023-12-09T06:35:21.527Z,85.16
2023-12-09T06:40:24.159Z,85.14
2023-12-09T06:45:26.246Z,85.14
2023-12-09T06:50:28.519Z,84.67
2023-12-09T06:55:30.665Z,85.29
2023-12-09T07:00:32.915Z,84.98
2023-12-09T07:05:35.146Z,85.26
2023-12-09T07:10:37.281Z,85.14
2023-12-09T07:15:39.450Z,85.63
2023-12-09T07:20:41.558Z,85.12
2023-12-09T07:25:43.784Z,83.38
2023-12-09T07:30:45.797Z,83.40
2023-12-09T07:35:47.949Z,83.03
2023-12-09T07:40:50.048Z,83.67
2023-12-09T07:45:52.110Z,82.70
2023-12-09T07:50:54.289Z,82.08
2023-12-09T07:55:56.572Z,81.85
2023-12-09T08:01:00.694Z,81.45
2023-12-09T08:06:03.088Z,81.19
2023-12-09T08:11:06.297Z,81.26
2023-12-09T08:16:09.254Z,81.42
2023-12-09T08:21:11.458Z,82.31
2023-12-09T08:26:18.088Z,83.76
2023-12-09T08:31:20.322Z,82.98
2023-12-09T08:36:22.577Z,83.00
2023-12-09T08:41:26.245Z,83.64
2023-12-09T08:46:29.586Z,83.92
2023-12-09T08:51:32.049Z,83.18
2023-12-09T08:56:34.431Z,84.00
2023-12-09T09:01:37.222Z,83.20
2023-12-09T09:06:39.711Z,82.45
2023-12-09T09:11:42.062Z,83.14
2023-12-09T09:16:44.154Z,83.21
2023-12-09T09:21:47.908Z,82.31
2023-12-09T09:26:50.177Z,82.35
2023-12-09T09:31:53.081Z,82.94
2023-12-09T09:36:55.215Z,82.55
2023-12-09T09:42:03.320Z,81.12
2023-12-09T09:47:05.472Z,81.11
2023-12-09T09:52:07.510Z,81.06
2023-12-09T09:57:09.976Z,80.32
2023-12-09T10:02:12.299Z,80.99
2023-12-09T10:07:14.689Z,80.20
2023-12-09T10:12:16.957Z,80.01
2023-12-09T10:17:19.997Z,79.40
2023-12-09T10:22:22.389Z,79.18
2023-12-09T10:27:25.593Z,81.67
2023-12-09T10:32:28.535Z,81.79
2023-12-09T10:37:31.024Z,81.17
2023-12-09T10:42:33.323Z,80.82
2023-12-09T10:47:35.852Z,80.39
2023-12-09T10:52:39.345Z,80.57
2023-12-09T10:57:42.085Z,80.74
2023-12-09T11:02:45.543Z,81.33
2023-12-09T11:07:48.322Z,80.59
2023-12-09T11:12:50.512Z,81.46
2023-12-09T11:17:55.171Z,81.13
2023-12-09T11:22:58.220Z,81.54
2023-12-09T11:28:00.364Z,80.93
2023-12-09T11:33:03.383Z,81.21
2023-12-09T11:38:07.182Z,81.08
2023-12-09T11:43:09.685Z,80.43
2023-12-09T11:48:12.239Z,80.35
2023-12-09T11:53:14.386Z,81.52
2023-12-09T11:58:16.671Z,81.18
2023-12-09T12:03:18.793Z,81.86
2023-12-09T12:08:21.472Z,82.72
2023-12-09T12:13:23.668Z,82.57
2023-12-09T12:18:26.007Z,82.87
2023-12-09T12:23:32.795Z,82.67
2023-12-09T12:28:35.354Z,82.67
2023-12-09T12:33:37.798Z,82.64
2023-12-09T12:38:40.141Z,82.19
2023-12-09T12:43:42.626Z,82.69
2023-12-09T12:48:45.025Z,83.58
2023-12-09T12:53:47.247Z,84.30
2023-12-09T12:58:49.356Z,84.22
2023-12-09T13:03:51.561Z,84.11
2023-12-09T13:08:53.530Z,84.83
2023-12-09T13:13:55.786Z,84.25
2023-12-09T13:18:58.733Z,85.96
2023-12-09T13:24:01.516Z,86.21
2023-12-09T13:29:03.786Z,85.78
2023-12-09T13:34:06.477Z,85.12
2023-12-09T13:39:08.679Z,84.87
2023-12-09T13:44:10.682Z,85.32
2023-12-09T13:49:13.987Z,85.58
2023-12-09T13:54:16.802Z,85.70
2023-12-09T13:59:18.860Z,85.46
2023-12-09T14:04:20.972Z,85.43
2023-12-09T14:09:23.223Z,86.18
2023-12-09T14:14:25.356Z,85.96
2023-12-09T14:19:27.447Z,86.11
2023-12-09T14:24:29.758Z,86.31
2023-12-09T14:29:31.738Z,86.33
2023-12-09T14:34:34.172Z,86.03
2023-12-09T14:39:36.583Z,86.43
2023-12-09T14:44:38.787Z,87.33
2023-12-09T14:49:41.256Z,86.86
2023-12-09T14:54:43.568Z,86.80
2023-12-09T14:59:45.745Z,87.46
2023-12-09T15:04:48.188Z,87.47
2023-12-09T15:09:50.565Z,87.27
2023-12-09T15:14:52.788Z,87.10
2023-12-09T15:19:55.129Z,87.36
2023-12-09T15:24:57.177Z,87.51
2023-12-09T15:29:59.220Z,87.04
2023-12-09T15:35:01.434Z,87.01
2023-12-09T15:40:06.609Z,87.71
2023-12-09T15:45:09.462Z,87.03
2023-12-09T15:50:11.864Z,87.18
2023-12-09T15:55:14.032Z,86.60
2023-12-09T16:00:17.603Z,86.61
2023-12-09T16:05:20.042Z,86.28
2023-12-09T16:10:22.338Z,86.74
2023-12-09T16:15:24.518Z,86.15
2023-12-09T16:20:26.710Z,86.01
2023-12-09T16:25:28.770Z,86.20
2023-12-09T16:30:31.012Z,85.80
2023-12-09T16:35:33.380Z,85.82
2023-12-09T16:40:35.384Z,86.12
2023-12-09T16:45:37.436Z,85.60
2023-12-09T16:50:39.596Z,86.34
2023-12-09T16:55:42.913Z,86.13
2023-12-09T17:00:45.087Z,85.51
2023-12-09T17:05:47.461Z,85.86
2023-12-09T17:10:49.561Z,85.25
2023-12-09T17:15:51.733Z,85.41
2023-12-09T17:20:53.901Z,85.80
2023-12-09T17:25:56.085Z,86.24
2023-12-09T17:30:58.228Z,85.63
2023-12-09T17:36:00.508Z,85.75
2023-12-09T17:41:02.639Z,85.30
2023-12-09T17:46:04.941Z,85.09
2023-12-09T17:51:07.086Z,85.33
2023-12-09T17:56:09.742Z,85.13
2023-12-09T18:01:12.359Z,85.80
2023-12-09T18:06:15.226Z,85.21
2023-12-09T18:11:17.381Z,85.16
2023-12-09T18:16:19.446Z,84.98
2023-12-09T18:21:21.667Z,85.12
2023-12-09T18:26:23.715Z,85.13
2023-12-09T18:31:25.927Z,86.27
2023-12-09T18:36:28.497Z,85.57
2023-12-09T18:41:30.811Z,86.17
2023-12-09T18:46:33.085Z,86.69
2023-12-09T18:51:35.493Z,86.99
2023-12-09T18:56:37.768Z,86.69
2023-12-09T19:01:40.110Z,86.75
2023-12-09T19:06:53.498Z,86.40
2023-12-09T19:11:59.024Z,87.02
2023-12-09T19:17:01.288Z,86.92
2023-12-09T19:22:03.397Z,87.16
2023-12-09T19:27:05.842Z,86.34
2023-12-09T19:32:08.182Z,86.40
2023-12-09T19:37:10.198Z,86.09
2023-12-09T19:42:12.352Z,86.34
2023-12-09T19:47:14.542Z,86.03
2023-12-09T19:52:16.723Z,86.24
2023-12-09T19:57:19.202Z,86.58
2023-12-09T20:02:21.541Z,86.11
2023-12-09T20:07:23.773Z,85.52
2023-12-09T20:12:26.350Z,86.57
2023-12-09T20:17:28.783Z,85.68
2023-12-09T20:22:31.416Z,87.27
2023-12-09T20:27:33.991Z,86.08
2023-12-09T20:32:36.398Z,86.65
2023-12-09T20:37:38.626Z,86.49
2023-12-09T20:42:40.960Z,86.78
2023-12-09T20:47:43.081Z,86.10
2023-12-09T20:52:45.342Z,86.71
2023-12-09T20:57:47.525Z,86.86
2023-12-09T21:02:49.734Z,86.24
2023-12-09T21:07:51.959Z,86.87
2023-12-09T21:12:54.191Z,86.28
2023-12-09T21:17:56.605Z,86.00
2023-12-09T21:22:58.793Z,85.74
2023-12-09T21:28:00.851Z,85.89
2023-12-09T21:33:03.045Z,86.14
2023-12-09T21:38:05.224Z,85.91
2023-12-09T21:43:07.697Z,85.85
2023-12-09T21:48:10.499Z,85.81
2023-12-09T21:53:12.889Z,86.25
2023-12-09T21:58:15.047Z,86.17
2023-12-09T22:03:17.268Z,87.00
2023-12-09T22:08:19.371Z,86.18
2023-12-09T22:13:21.513Z,86.60
2023-12-09T22:18:23.790Z,86.06
2023-12-09T22:23:25.975Z,87.08
2023-12-09T22:28:30.902Z,86.71
2023-12-09T22:33:33.341Z,87.38
2023-12-09T22:38:35.493Z,86.88
2023-12-09T22:43:37.752Z,86.74
2023-12-09T22:48:40.033Z,86.38
2023-12-09T22:53:42.392Z,87.15
2023-12-09T22:58:44.579Z,87.50
2023-12-09T23:03:46.743Z,86.81
2023-12-09T23:08:48.985Z,87.58
2023-12-09T23:13:51.199Z,87.57
2023-12-09T23:18:53.547Z,87.42
2023-12-09T23:23:55.799Z,88.06
2023-12-09T23:28:57.952Z,88.56
2023-12-09T23:34:00.486Z,87.97
2023-12-09T23:39:02.812Z,88.27
2023-12-09T23:44:05.241Z,87.90
2023-12-09T23:49:07.611Z,88.54
2023-12-09T23:54:09.891Z,88.55
2023-12-09T23:59:11.942Z,88.94
